createdAt,value
2019-04-28T00:01:01.659Z,8.60
2019-04-28T00:03:47.658Z,8.53
2019-04-28T00:06:33.337Z,8.39
2019-04-28T00:09:21.332Z,8.35
2019-04-28T00:12:07.697Z,8.26
2019-04-28T00:14:53.466Z,8.54
2019-04-28T00:17:41.903Z,8.55
2019-04-28T00:20:52.897Z,8.48
2019-04-28T00:24:04.705Z,8.71
2019-04-28T00:26:53.848Z,8.50
2019-04-28T00:29:43.870Z,8.68
2019-04-28T00:32:28.302Z,8.71
2019-04-28T00:35:14.110Z,8.78
2019-04-28T00:38:01.428Z,8.66
2019-04-28T00:40:49.006Z,8.73
2019-04-28T00:43:34.437Z,8.72
2019-04-28T00:46:24.280Z,8.70
2019-04-28T00:49:11.927Z,8.74
2019-04-28T00:51:58.002Z,8.70
2019-04-28T00:54:45.046Z,8.84
2019-04-28T00:57:31.250Z,8.69
2019-04-28T01:00:19.070Z,8.72
2019-04-28T01:03:04.602Z,8.76
2019-04-28T01:05:50.866Z,8.50
2019-04-28T01:08:37.113Z,8.75
2019-04-28T01:11:23.238Z,8.77
2019-04-28T01:14:08.993Z,8.69
2019-04-28T01:17:19.805Z,8.55
2019-04-28T01:20:09.798Z,8.67
2019-04-28T01:22:55.876Z,8.48
2019-04-28T01:25:42.293Z,8.62
2019-04-28T01:28:29.751Z,8.30
2019-04-28T01:31:39.610Z,8.69
2019-04-28T01:34:25.362Z,8.59
2019-04-28T01:37:11.576Z,8.58
2019-04-28T01:39:59.567Z,8.70
2019-04-28T01:42:45.489Z,8.84
2019-04-28T01:45:30.959Z,8.78
2019-04-28T01:48:17.687Z,8.87
2019-04-28T01:51:03.210Z,8.62
2019-04-28T01:53:50.475Z,8.69
2019-04-28T01:56:37.059Z,8.59
2019-04-28T01:59:22.871Z,8.62
2019-04-28T02:02:10.237Z,8.78
2019-04-28T02:04:56.379Z,8.44
2019-04-28T02:07:41.870Z,8.42
2019-04-28T02:10:27.566Z,8.66
2019-04-28T02:13:14.040Z,8.50
2019-04-28T02:16:00.914Z,8.71
2019-04-28T02:18:46.511Z,8.56
2019-04-28T02:21:41.835Z,8.42
2019-04-28T02:24:30.528Z,8.56
2019-04-28T02:27:16.314Z,8.43
2019-04-28T02:30:02.310Z,8.45
2019-04-28T02:32:51.616Z,8.40
2019-04-28T02:35:35.851Z,8.40
2019-04-28T02:38:26.367Z,8.50
2019-04-28T02:41:12.164Z,8.59
2019-04-28T02:43:57.867Z,8.69
2019-04-28T02:46:44.207Z,8.36
2019-04-28T02:49:43.673Z,8.55
2019-04-28T02:52:47.890Z,8.64
2019-04-28T02:55:33.369Z,8.46
2019-04-28T02:58:22.111Z,8.76
2019-04-28T03:01:18.553Z,8.67
2019-04-28T03:03:54.620Z,8.72
2019-04-28T03:06:41.098Z,8.45
2019-04-28T03:09:30.403Z,8.57
2019-04-28T03:12:15.308Z,8.77
2019-04-28T03:15:01.014Z,8.64
2019-04-28T03:17:47.272Z,8.73
2019-04-28T03:20:33.763Z,8.86
2019-04-28T03:23:20.695Z,8.57
2019-04-28T03:26:23.425Z,8.74
2019-04-28T03:29:32.029Z,8.44
2019-04-28T03:32:52.867Z,8.32
2019-04-28T03:35:32.832Z,8.59
2019-04-28T03:38:21.379Z,8.48
2019-04-28T03:41:07.144Z,8.53
2019-04-28T03:43:53.103Z,8.64
2019-04-28T03:46:44.791Z,8.39
2019-04-28T03:49:32.112Z,8.25
2019-04-28T03:52:20.992Z,8.56
2019-04-28T03:55:06.197Z,8.54
2019-04-28T03:57:52.061Z,8.61
2019-04-28T04:00:40.618Z,8.43
2019-04-28T04:03:25.115Z,8.43
2019-04-28T04:06:10.803Z,8.46
2019-04-28T04:08:56.598Z,8.51
2019-04-28T04:11:50.872Z,8.44
2019-04-28T04:15:05.057Z,8.49
2019-04-28T04:18:11.088Z,8.51
2019-04-28T04:20:56.810Z,8.60
2019-04-28T04:23:42.427Z,8.47
2019-04-28T04:26:32.879Z,8.48
2019-04-28T04:29:16.915Z,8.50
2019-04-28T04:32:15.702Z,8.48
2019-04-28T04:34:50.881Z,8.72
2019-04-28T04:37:40.640Z,8.68
2019-04-28T04:40:27.149Z,8.63
2019-04-28T04:43:12.573Z,8.53
2019-04-28T04:46:22.122Z,8.54
2019-04-28T04:49:07.000Z,8.36
2019-04-28T04:51:53.106Z,8.46
2019-04-28T04:54:40.100Z,8.61
2019-04-28T04:57:26.317Z,8.63
2019-04-28T05:00:17.676Z,8.58
2019-04-28T05:03:10.613Z,8.67
2019-04-28T05:05:56.580Z,8.64
2019-04-28T05:08:42.503Z,8.89
2019-04-28T05:11:29.987Z,8.65
2019-04-28T05:14:16.053Z,8.70
2019-04-28T05:17:02.408Z,8.60
2019-04-28T05:19:49.698Z,8.97
2019-04-28T05:22:42.643Z,8.64
2019-04-28T05:25:34.260Z,8.77
2019-04-28T05:28:20.379Z,8.67
2019-04-28T05:31:06.336Z,8.89
2019-04-28T05:33:51.944Z,9.03
2019-04-28T05:36:42.474Z,9.17
2019-04-28T05:39:25.959Z,8.81
2019-04-28T05:42:11.792Z,8.96
2019-04-28T05:44:59.800Z,9.10
2019-04-28T05:47:45.579Z,9.43
2019-04-28T05:50:36.991Z,9.01
2019-04-28T05:53:30.122Z,8.69
2019-04-28T05:56:23.685Z,8.92
2019-04-28T05:59:13.553Z,9.34
2019-04-28T06:02:12.182Z,8.86
2019-04-28T06:04:59.933Z,9.08
2019-04-28T06:08:11.601Z,9.35
2019-04-28T06:10:57.224Z,9.13
2019-04-28T06:13:42.913Z,8.99
2019-04-28T06:16:30.483Z,9.21
2019-04-28T06:19:16.493Z,9.02
2019-04-28T06:22:02.048Z,9.55
2019-04-28T06:24:48.082Z,9.17
2019-04-28T06:27:33.550Z,9.35
2019-04-28T06:30:20.089Z,9.54
2019-04-28T06:33:08.116Z,9.83
2019-04-28T06:35:55.409Z,9.18
2019-04-28T06:38:40.947Z,9.49
2019-04-28T06:41:27.046Z,9.67
2019-04-28T06:44:12.924Z,9.73
2019-04-28T06:46:59.545Z,9.67
2019-04-28T06:49:45.322Z,9.83
2019-04-28T06:52:31.220Z,10.10
2019-04-28T06:55:17.314Z,9.95
2019-04-28T06:58:03.509Z,9.95
2019-04-28T07:00:49.093Z,10.07
2019-04-28T07:03:35.803Z,10.27
2019-04-28T07:06:21.652Z,9.89
2019-04-28T07:09:07.426Z,9.86
2019-04-28T07:11:53.737Z,10.07
2019-04-28T07:14:39.437Z,10.38
2019-04-28T07:17:25.185Z,10.40
2019-04-28T07:20:28.882Z,10.51
2019-04-28T07:23:14.459Z,10.57
2019-04-28T07:26:00.825Z,11.55
2019-04-28T07:28:47.056Z,11.50
2019-04-28T07:31:33.565Z,11.57
2019-04-28T07:34:20.269Z,11.29
2019-04-28T07:37:07.038Z,11.47
2019-04-28T07:39:52.875Z,10.92
2019-04-28T07:42:39.657Z,11.03
2019-04-28T07:45:25.738Z,10.61
2019-04-28T07:48:11.568Z,11.32
2019-04-28T07:50:58.077Z,11.20
2019-04-28T07:53:48.183Z,11.62
2019-04-28T07:56:33.856Z,12.40
2019-04-28T07:59:20.187Z,12.73
2019-04-28T08:02:06.023Z,12.50
2019-04-28T08:04:51.733Z,12.53
2019-04-28T08:07:37.650Z,11.61
2019-04-28T08:10:23.594Z,12.01
2019-04-28T08:13:11.890Z,12.24
2019-04-28T08:15:58.070Z,12.28
2019-04-28T08:18:43.582Z,12.80
2019-04-28T08:21:29.364Z,13.47
2019-04-28T08:24:17.213Z,14.36
2019-04-28T08:27:03.624Z,11.91
2019-04-28T08:29:58.281Z,12.28
2019-04-28T08:32:53.062Z,12.89
2019-04-28T08:35:38.922Z,13.75
2019-04-28T08:38:25.442Z,12.21
2019-04-28T08:41:10.966Z,13.39
2019-04-28T08:43:56.721Z,13.08
2019-04-28T08:46:42.493Z,13.36
2019-04-28T08:49:27.986Z,13.28
2019-04-28T08:52:13.791Z,11.71
2019-04-28T08:54:59.782Z,13.13
2019-04-28T08:57:45.534Z,12.42
2019-04-28T09:00:31.174Z,12.51
2019-04-28T09:03:16.973Z,13.10
2019-04-28T09:06:03.716Z,13.18
2019-04-28T09:08:49.156Z,14.14
2019-04-28T09:11:35.166Z,14.05
2019-04-28T09:14:21.015Z,14.27
2019-04-28T09:17:06.534Z,14.44
2019-04-28T09:19:53.566Z,12.67
2019-04-28T09:22:39.218Z,13.74
2019-04-28T09:25:25.983Z,13.50
2019-04-28T09:28:14.189Z,12.80
2019-04-28T09:31:01.650Z,13.26
2019-04-28T09:33:50.022Z,13.20
2019-04-28T09:36:38.654Z,14.54
2019-04-28T09:40:02.435Z,14.81
2019-04-28T09:43:06.586Z,14.17
2019-04-28T09:45:57.892Z,14.37
2019-04-28T09:48:44.498Z,14.43
2019-04-28T09:51:31.343Z,14.45
2019-04-28T09:54:17.451Z,14.37
2019-04-28T09:57:03.748Z,13.95
2019-04-28T09:59:49.214Z,13.99
2019-04-28T10:02:34.891Z,14.47
2019-04-28T10:05:24.736Z,14.59
2019-04-28T10:08:10.546Z,14.50
2019-04-28T10:10:56.355Z,13.81
2019-04-28T10:13:45.793Z,13.62
2019-04-28T10:16:32.563Z,13.03
2019-04-28T10:19:18.718Z,13.62
2019-04-28T10:22:08.481Z,14.02
2019-04-28T10:24:54.682Z,13.70
2019-04-28T10:27:41.221Z,14.18
2019-04-28T10:30:29.211Z,13.94
2019-04-28T10:33:14.848Z,13.75
2019-04-28T10:36:01.616Z,13.45
2019-04-28T10:38:52.355Z,12.96
2019-04-28T10:41:39.563Z,12.37
2019-04-28T10:44:26.487Z,11.87
2019-04-28T10:47:12.528Z,13.60
2019-04-28T10:49:58.138Z,14.25
2019-04-28T10:52:43.728Z,14.22
2019-04-28T10:55:32.674Z,15.11
2019-04-28T10:58:18.664Z,15.19
2019-04-28T11:01:05.315Z,16.10
2019-04-28T11:03:53.663Z,14.21
2019-04-28T11:06:39.552Z,13.57
2019-04-28T11:09:31.395Z,15.47
2019-04-28T11:12:22.411Z,17.64
2019-04-28T11:15:11.776Z,16.07
2019-04-28T11:17:57.513Z,15.92
2019-04-28T11:20:43.465Z,16.87
2019-04-28T11:23:29.387Z,15.39
2019-04-28T11:26:15.199Z,14.81
2019-04-28T11:29:01.472Z,14.48
2019-04-28T11:31:47.473Z,14.64
2019-04-28T11:34:56.039Z,14.71
2019-04-28T11:37:42.275Z,14.53
2019-04-28T11:40:28.178Z,14.51
2019-04-28T11:43:15.291Z,15.06
2019-04-28T11:46:02.008Z,15.12
2019-04-28T11:48:47.926Z,14.41
2019-04-28T11:51:34.208Z,14.08
2019-04-28T11:54:19.992Z,15.18
2019-04-28T11:57:05.878Z,17.95
2019-04-28T11:59:54.107Z,15.25
2019-04-28T12:02:39.908Z,17.16
2019-04-28T12:05:34.788Z,18.34
2019-04-28T12:08:18.340Z,17.47
2019-04-28T12:11:42.440Z,16.85
2019-04-28T12:14:36.528Z,17.48
2019-04-28T12:17:46.145Z,16.80
2019-04-28T12:20:35.132Z,16.01
2019-04-28T12:23:20.966Z,16.38
2019-04-28T12:26:06.387Z,16.08
2019-04-28T12:28:52.137Z,16.42
2019-04-28T12:31:39.504Z,15.41
2019-04-28T12:34:25.324Z,15.86
2019-04-28T12:37:10.940Z,14.68
2019-04-28T12:39:57.712Z,15.45
2019-04-28T12:42:43.216Z,15.96
2019-04-28T12:45:35.165Z,16.41
2019-04-28T12:48:17.007Z,15.56
2019-04-28T12:51:02.687Z,15.06
2019-04-28T12:53:51.935Z,15.18
2019-04-28T12:56:37.398Z,16.32
2019-04-28T12:59:28.614Z,16.32
2019-04-28T13:02:28.362Z,15.54
2019-04-28T13:05:14.940Z,16.40
2019-04-28T13:08:04.156Z,16.75
2019-04-28T13:10:50.185Z,17.17
2019-04-28T13:13:36.249Z,16.19
2019-04-28T13:16:22.252Z,16.51
2019-04-28T13:19:08.380Z,17.21
2019-04-28T13:21:54.747Z,16.77
2019-04-28T13:24:41.317Z,16.71
2019-04-28T13:27:28.792Z,18.16
2019-04-28T13:30:15.173Z,17.16
2019-04-28T13:33:02.114Z,17.39
2019-04-28T13:35:48.375Z,17.73
2019-04-28T13:38:35.746Z,16.38
2019-04-28T13:41:21.951Z,16.81
2019-04-28T13:44:10.083Z,16.86
2019-04-28T13:47:13.408Z,15.58
2019-04-28T13:50:05.623Z,15.99
2019-04-28T13:52:51.825Z,15.97
2019-04-28T13:55:59.392Z,15.22
2019-04-28T13:58:50.113Z,15.67
2019-04-28T14:01:55.717Z,15.50
2019-04-28T14:04:50.776Z,15.69
2019-04-28T14:07:41.681Z,15.35
2019-04-28T14:10:25.415Z,15.10
2019-04-28T14:13:15.082Z,14.98
2019-04-28T14:16:01.013Z,15.23
2019-04-28T14:18:50.764Z,14.19
2019-04-28T14:21:36.886Z,14.71
2019-04-28T14:24:22.731Z,15.22
2019-04-28T14:27:09.771Z,15.39
2019-04-28T14:29:55.891Z,14.76
2019-04-28T14:32:43.388Z,14.65
2019-04-28T14:35:32.750Z,14.76
2019-04-28T14:38:19.084Z,15.95
2019-04-28T14:41:05.619Z,15.36
2019-04-28T14:43:52.345Z,15.74
2019-04-28T14:46:38.359Z,15.78
2019-04-28T14:49:24.373Z,15.76
2019-04-28T14:52:09.884Z,15.45
2019-04-28T14:54:56.066Z,16.11
2019-04-28T14:57:42.489Z,16.14
2019-04-28T15:00:34.091Z,18.10
2019-04-28T15:03:20.008Z,19.57
2019-04-28T15:06:15.427Z,17.52
2019-04-28T15:09:21.030Z,16.54
2019-04-28T15:12:07.290Z,17.95
2019-04-28T15:14:53.238Z,18.22
2019-04-28T15:17:38.989Z,18.26
2019-04-28T15:20:24.474Z,18.02
2019-04-28T15:23:10.652Z,15.90
2019-04-28T15:25:58.975Z,17.09
2019-04-28T15:28:44.612Z,18.11
2019-04-28T15:31:29.966Z,17.90
2019-04-28T15:34:15.776Z,17.22
2019-04-28T15:37:10.237Z,16.51
2019-04-28T15:39:56.339Z,16.76
2019-04-28T15:42:42.735Z,15.72
2019-04-28T15:45:30.264Z,15.59
2019-04-28T15:48:16.126Z,15.75
2019-04-28T15:51:02.601Z,15.76
2019-04-28T15:53:48.389Z,15.66
2019-04-28T15:56:47.404Z,16.22
2019-04-28T15:59:33.207Z,15.92
2019-04-28T16:02:19.415Z,15.68
2019-04-28T16:05:05.505Z,14.44
2019-04-28T16:07:50.916Z,13.37
2019-04-28T16:10:36.663Z,12.53
2019-04-28T16:13:23.016Z,12.81
2019-04-28T16:16:09.596Z,12.66
2019-04-28T16:18:55.844Z,11.98
2019-04-28T16:21:43.544Z,12.20
2019-04-28T16:24:30.380Z,12.13
2019-04-28T16:27:16.220Z,11.88
2019-04-28T16:30:04.403Z,11.94
2019-04-28T16:32:50.272Z,12.11
2019-04-28T16:35:37.624Z,12.25
2019-04-28T16:38:23.592Z,12.12
2019-04-28T16:41:14.024Z,12.10
2019-04-28T16:44:04.175Z,12.40
2019-04-28T16:46:49.862Z,12.69
2019-04-28T16:49:37.906Z,12.49
2019-04-28T16:52:24.148Z,12.41
2019-04-28T16:55:14.417Z,12.51
2019-04-28T16:58:13.588Z,12.84
2019-04-28T17:01:19.262Z,12.84
2019-04-28T17:04:05.286Z,13.06
2019-04-28T17:06:51.004Z,13.15
2019-04-28T17:09:36.833Z,13.00
2019-04-28T17:12:22.305Z,13.07
2019-04-28T17:15:08.176Z,13.27
2019-04-28T17:17:53.762Z,13.35
2019-04-28T17:20:39.257Z,13.52
2019-04-28T17:23:25.448Z,13.57
2019-04-28T17:26:11.649Z,13.54
2019-04-28T17:28:57.642Z,13.68
2019-04-28T17:31:43.941Z,13.16
2019-04-28T17:34:31.264Z,13.52
2019-04-28T17:37:16.891Z,13.43
2019-04-28T17:40:03.925Z,13.47
2019-04-28T17:42:50.281Z,13.14
2019-04-28T17:45:36.465Z,13.24
2019-04-28T17:48:28.395Z,13.11
2019-04-28T17:51:14.349Z,13.19
2019-04-28T17:54:00.169Z,13.05
2019-04-28T17:56:46.228Z,12.98
2019-04-28T17:59:35.515Z,12.87
2019-04-28T18:02:40.049Z,12.88
2019-04-28T18:05:31.249Z,12.75
2019-04-28T18:08:21.097Z,12.66
2019-04-28T18:11:05.205Z,12.39
2019-04-28T18:13:50.799Z,12.34
2019-04-28T18:16:56.681Z,12.42
2019-04-28T18:19:44.645Z,11.99
2019-04-28T18:22:31.561Z,12.06
2019-04-28T18:25:17.617Z,11.81
2019-04-28T18:28:04.031Z,11.76
2019-04-28T18:31:07.793Z,11.54
2019-04-28T18:34:09.997Z,11.55
2019-04-28T18:37:21.772Z,11.51
2019-04-28T18:40:16.086Z,11.25
2019-04-28T18:43:11.405Z,11.29
2019-04-28T18:45:57.276Z,11.28
2019-04-28T18:48:43.974Z,11.29
2019-04-28T18:51:44.319Z,11.14
2019-04-28T18:54:42.546Z,11.18
2019-04-28T18:57:31.760Z,11.14
2019-04-28T19:00:20.633Z,11.11
2019-04-28T19:03:06.739Z,10.98
2019-04-28T19:05:53.461Z,10.84
2019-04-28T19:08:49.252Z,10.78
2019-04-28T19:11:45.287Z,10.72
2019-04-28T19:14:38.061Z,10.69
2019-04-28T19:17:42.070Z,10.42
2019-04-28T19:20:27.910Z,10.56
2019-04-28T19:23:13.798Z,10.44
2019-04-28T19:26:00.176Z,10.37
2019-04-28T19:28:45.680Z,10.26
2019-04-28T19:31:31.719Z,10.23
2019-04-28T19:34:18.747Z,10.34
2019-04-28T19:37:04.954Z,10.14
2019-04-28T19:39:51.202Z,10.04
2019-04-28T19:42:38.993Z,10.05
2019-04-28T19:45:24.730Z,10.10
2019-04-28T19:48:11.206Z,10.38
2019-04-28T19:51:01.659Z,10.39
2019-04-28T19:53:47.510Z,10.35
2019-04-28T19:56:39.210Z,10.17
2019-04-28T19:59:35.656Z,9.92
2019-04-28T20:02:22.031Z,9.81
2019-04-28T20:05:08.471Z,10.01
2019-04-28T20:07:54.696Z,10.13
2019-04-28T20:10:40.613Z,10.03
2019-04-28T20:13:31.185Z,9.96
2019-04-28T20:16:16.694Z,9.65
2019-04-28T20:19:02.759Z,9.43
2019-04-28T20:21:48.907Z,9.40
2019-04-28T20:24:46.558Z,9.32
2019-04-28T20:27:21.956Z,9.41
2019-04-28T20:30:08.082Z,9.33
2019-04-28T20:33:06.524Z,9.38
2019-04-28T20:35:46.906Z,9.33
2019-04-28T20:38:33.457Z,9.44
2019-04-28T20:41:22.294Z,9.72
2019-04-28T20:44:08.061Z,9.71
2019-04-28T20:46:57.127Z,9.19
2019-04-28T20:49:43.140Z,9.11
2019-04-28T20:52:29.428Z,9.19
2019-04-28T20:55:15.796Z,9.13
2019-04-28T20:58:01.620Z,9.27
2019-04-28T21:00:47.844Z,9.14
2019-04-28T21:03:33.810Z,9.17
2019-04-28T21:06:19.799Z,8.89
2019-04-28T21:09:09.497Z,8.72
2019-04-28T21:11:54.697Z,8.66
2019-04-28T21:14:40.243Z,8.74
2019-04-28T21:17:26.331Z,8.76
2019-04-28T21:20:12.735Z,8.73
2019-04-28T21:22:59.035Z,8.99
2019-04-28T21:25:44.509Z,9.08
2019-04-28T21:28:30.499Z,8.65
2019-04-28T21:31:16.409Z,8.53
2019-04-28T21:34:02.157Z,8.52
2019-04-28T21:36:48.204Z,8.43
2019-04-28T21:39:34.451Z,8.41
2019-04-28T21:42:22.810Z,8.46
2019-04-28T21:45:23.245Z,8.52
2019-04-28T21:48:09.541Z,8.60
2019-04-28T21:50:55.473Z,8.61
2019-04-28T21:53:43.432Z,8.86
2019-04-28T21:56:29.304Z,8.91
2019-04-28T21:59:14.895Z,8.88
2019-04-28T22:02:01.238Z,8.69
2019-04-28T22:04:47.088Z,8.61
2019-04-28T22:07:33.337Z,8.52
2019-04-28T22:10:19.741Z,8.11
2019-04-28T22:13:07.679Z,8.20
2019-04-28T22:15:53.567Z,8.09
2019-04-28T22:18:40.495Z,8.39
2019-04-28T22:21:26.023Z,8.40
2019-04-28T22:24:24.547Z,8.40
2019-04-28T22:27:12.525Z,8.36
2019-04-28T22:29:58.065Z,8.21
2019-04-28T22:32:43.957Z,8.15
2019-04-28T22:35:29.874Z,8.12
2019-04-28T22:38:15.427Z,8.10
2019-04-28T22:41:01.217Z,8.06
2019-04-28T22:43:46.692Z,8.01
2019-04-28T22:46:32.593Z,7.93
2019-04-28T22:49:18.469Z,7.90
2019-04-28T22:52:04.462Z,7.97
2019-04-28T22:55:11.133Z,7.93
2019-04-28T22:58:04.704Z,7.80
2019-04-28T23:01:10.565Z,7.68
2019-04-28T23:04:25.652Z,7.64
2019-04-28T23:07:11.653Z,7.61
2019-04-28T23:09:57.937Z,7.41
2019-04-28T23:12:43.849Z,7.11
2019-04-28T23:15:29.485Z,7.38
2019-04-28T23:18:15.600Z,7.38
2019-04-28T23:21:06.254Z,7.39
2019-04-28T23:23:52.198Z,7.33
2019-04-28T23:26:38.152Z,7.26
2019-04-28T23:29:23.869Z,7.19
2019-04-28T23:32:09.538Z,7.15
2019-04-28T23:34:55.404Z,7.17
2019-04-28T23:37:41.182Z,7.15
2019-04-28T23:40:27.141Z,7.13
2019-04-28T23:43:17.713Z,7.08
2019-04-28T23:46:03.414Z,7.09
2019-04-28T23:48:49.242Z,7.05
2019-04-28T23:51:41.734Z,7.04
2019-04-28T23:54:27.658Z,7.07
2019-04-28T23:57:13.410Z,6.96
2019-04-28T23:59:59.694Z,6.73
